sensor_id;sensor_type;location;lat;lon;timestamp;P1;durP1;ratioP1;P2;durP2;ratioP2
9541;SDS011;4809;48.224;8.572;2023-07-09T00:02:15;7.28;;;5.28;;
9541;SDS011;4809;48.224;8.572;2023-07-09T00:04:42;7.00;;;4.70;;
9541;SDS011;4809;48.224;8.572;2023-07-09T00:07:12;7.63;;;5.10;;
9541;SDS011;4809;48.224;8.572;2023-07-09T00:09:54;7.05;;;5.05;;
9541;SDS011;4809;48.224;8.572;2023-07-09T00:12:20;7.80;;;5.00;;
9541;SDS011;4809;48.224;8.572;2023-07-09T00:14:46;7.10;;;5.15;;
9541;SDS011;4809;48.224;8.572;2023-07-09T00:17:18;6.40;;;5.00;;
9541;SDS011;4809;48.224;8.572;2023-07-09T00:19:44;8.40;;;5.03;;
9541;SDS011;4809;48.224;8.572;2023-07-09T00:22:14;6.05;;;5.00;;
9541;SDS011;4809;48.224;8.572;2023-07-09T00:24:42;6.70;;;4.88;;
9541;SDS011;4809;48.224;8.572;2023-07-09T00:27:09;5.68;;;4.93;;
9541;SDS011;4809;48.224;8.572;2023-07-09T00:29:36;7.00;;;4.75;;
9541;SDS011;4809;48.224;8.572;2023-07-09T00:32:01;6.10;;;4.85;;
9541;SDS011;4809;48.224;8.572;2023-07-09T00:34:27;7.05;;;4.78;;
9541;SDS011;4809;48.224;8.572;2023-07-09T00:36:53;5.93;;;4.57;;
9541;SDS011;4809;48.224;8.572;2023-07-09T00:39:20;6.72;;;4.53;;
9541;SDS011;4809;48.224;8.572;2023-07-09T00:41:47;6.97;;;4.72;;
9541;SDS011;4809;48.224;8.572;2023-07-09T00:49:24;7.45;;;4.75;;
9541;SDS011;4809;48.224;8.572;2023-07-09T00:51:56;6.03;;;4.57;;
9541;SDS011;4809;48.224;8.572;2023-07-09T00:54:36;6.22;;;4.63;;
9541;SDS011;4809;48.224;8.572;2023-07-09T00:57:05;7.47;;;4.85;;
9541;SDS011;4809;48.224;8.572;2023-07-09T00:59:43;8.25;;;4.82;;
9541;SDS011;4809;48.224;8.572;2023-07-09T01:02:12;6.65;;;4.80;;
9541;SDS011;4809;48.224;8.572;2023-07-09T01:04:37;7.18;;;4.95;;
9541;SDS011;4809;48.224;8.572;2023-07-09T01:07:05;6.28;;;5.22;;
9541;SDS011;4809;48.224;8.572;2023-07-09T01:09:31;6.68;;;4.82;;
9541;SDS011;4809;48.224;8.572;2023-07-09T01:12:00;8.02;;;5.10;;
9541;SDS011;4809;48.224;8.572;2023-07-09T01:14:30;6.60;;;5.20;;
9541;SDS011;4809;48.224;8.572;2023-07-09T01:16:58;7.60;;;5.22;;
9541;SDS011;4809;48.224;8.572;2023-07-09T01:19:28;6.85;;;4.93;;
9541;SDS011;4809;48.224;8.572;2023-07-09T01:21:55;6.05;;;5.10;;
9541;SDS011;4809;48.224;8.572;2023-07-09T01:27:32;6.22;;;4.93;;
9541;SDS011;4809;48.224;8.572;2023-07-09T01:30:03;6.63;;;4.70;;
9541;SDS011;4809;48.224;8.572;2023-07-09T01:32:39;7.47;;;5.10;;
9541;SDS011;4809;48.224;8.572;2023-07-09T01:35:11;7.60;;;5.05;;
9541;SDS011;4809;48.224;8.572;2023-07-09T01:37:40;5.93;;;4.80;;
9541;SDS011;4809;48.224;8.572;2023-07-09T01:40:08;7.53;;;5.32;;
9541;SDS011;4809;48.224;8.572;2023-07-09T01:42:35;6.38;;;5.22;;
9541;SDS011;4809;48.224;8.572;2023-07-09T01:45:03;5.60;;;4.97;;
9541;SDS011;4809;48.224;8.572;2023-07-09T01:47:30;6.80;;;4.78;;
9541;SDS011;4809;48.224;8.572;2023-07-09T01:49:55;6.47;;;4.78;;
9541;SDS011;4809;48.224;8.572;2023-07-09T01:52:22;6.40;;;4.90;;
9541;SDS011;4809;48.224;8.572;2023-07-09T01:54:50;6.80;;;5.22;;
9541;SDS011;4809;48.224;8.572;2023-07-09T01:57:19;5.80;;;4.82;;
9541;SDS011;4809;48.224;8.572;2023-07-09T01:59:51;6.50;;;5.10;;
9541;SDS011;4809;48.224;8.572;2023-07-09T02:02:18;5.90;;;4.75;;
9541;SDS011;4809;48.224;8.572;2023-07-09T02:04:45;7.30;;;4.60;;
9541;SDS011;4809;48.224;8.572;2023-07-09T02:07:15;5.50;;;4.65;;
9541;SDS011;4809;48.224;8.572;2023-07-09T02:09:41;7.15;;;4.65;;
9541;SDS011;4809;48.224;8.572;2023-07-09T02:12:07;6.28;;;4.32;;
9541;SDS011;4809;48.224;8.572;2023-07-09T02:14:34;8.15;;;4.72;;
9541;SDS011;4809;48.224;8.572;2023-07-09T02:17:00;5.53;;;4.45;;
9541;SDS011;4809;48.224;8.572;2023-07-09T02:19:27;6.00;;;4.88;;
9541;SDS011;4809;48.224;8.572;2023-07-09T02:21:53;5.90;;;4.60;;
9541;SDS011;4809;48.224;8.572;2023-07-09T02:24:19;5.93;;;4.75;;
9541;SDS011;4809;48.224;8.572;2023-07-09T02:26:49;6.10;;;4.53;;
9541;SDS011;4809;48.224;8.572;2023-07-09T02:29:15;6.10;;;4.70;;
9541;SDS011;4809;48.224;8.572;2023-07-09T02:31:41;6.25;;;4.70;;
9541;SDS011;4809;48.224;8.572;2023-07-09T02:34:07;7.78;;;5.07;;
9541;SDS011;4809;48.224;8.572;2023-07-09T02:36:33;5.70;;;4.63;;
9541;SDS011;4809;48.224;8.572;2023-07-09T02:38:58;6.13;;;4.68;;
9541;SDS011;4809;48.224;8.572;2023-07-09T02:41:24;5.55;;;4.93;;
9541;SDS011;4809;48.224;8.572;2023-07-09T02:43:50;6.22;;;4.70;;
9541;SDS011;4809;48.224;8.572;2023-07-09T02:46:15;6.53;;;4.60;;
9541;SDS011;4809;48.224;8.572;2023-07-09T02:48:41;6.78;;;4.82;;
9541;SDS011;4809;48.224;8.572;2023-07-09T02:51:06;5.90;;;4.85;;
9541;SDS011;4809;48.224;8.572;2023-07-09T02:53:32;7.22;;;5.00;;
9541;SDS011;4809;48.224;8.572;2023-07-09T02:55:58;5.40;;;4.72;;
9541;SDS011;4809;48.224;8.572;2023-07-09T02:58:23;5.60;;;4.90;;
9541;SDS011;4809;48.224;8.572;2023-07-09T03:00:49;6.10;;;4.75;;
9541;SDS011;4809;48.224;8.572;2023-07-09T03:03:18;6.13;;;4.88;;
9541;SDS011;4809;48.224;8.572;2023-07-09T03:05:45;6.43;;;4.90;;
9541;SDS011;4809;48.224;8.572;2023-07-09T03:08:11;6.25;;;4.80;;
9541;SDS011;4809;48.224;8.572;2023-07-09T03:10:37;7.45;;;4.90;;
9541;SDS011;4809;48.224;8.572;2023-07-09T03:13:03;6.55;;;4.82;;
9541;SDS011;4809;48.224;8.572;2023-07-09T03:15:28;7.50;;;4.90;;
9541;SDS011;4809;48.224;8.572;2023-07-09T03:17:55;6.45;;;4.95;;
9541;SDS011;4809;48.224;8.572;2023-07-09T03:20:21;7.75;;;5.13;;
9541;SDS011;4809;48.224;8.572;2023-07-09T03:22:46;6.13;;;4.70;;
9541;SDS011;4809;48.224;8.572;2023-07-09T03:25:12;5.57;;;4.72;;
9541;SDS011;4809;48.224;8.572;2023-07-09T03:27:38;6.63;;;4.70;;
9541;SDS011;4809;48.224;8.572;2023-07-09T03:30:04;5.88;;;4.82;;
9541;SDS011;4809;48.224;8.572;2023-07-09T03:32:30;6.53;;;5.18;;
9541;SDS011;4809;48.224;8.572;2023-07-09T03:34:56;5.88;;;4.63;;
9541;SDS011;4809;48.224;8.572;2023-07-09T03:37:21;7.35;;;4.72;;
9541;SDS011;4809;48.224;8.572;2023-07-09T03:39:47;6.38;;;4.82;;
9541;SDS011;4809;48.224;8.572;2023-07-09T03:42:13;6.38;;;4.80;;
9541;SDS011;4809;48.224;8.572;2023-07-09T03:44:39;6.63;;;4.70;;
9541;SDS011;4809;48.224;8.572;2023-07-09T03:47:05;6.35;;;4.80;;
9541;SDS011;4809;48.224;8.572;2023-07-09T03:49:32;7.20;;;4.95;;
9541;SDS011;4809;48.224;8.572;2023-07-09T03:51:57;5.60;;;4.72;;
9541;SDS011;4809;48.224;8.572;2023-07-09T03:54:23;5.55;;;4.45;;
9541;SDS011;4809;48.224;8.572;2023-07-09T03:56:49;6.50;;;5.20;;
9541;SDS011;4809;48.224;8.572;2023-07-09T03:59:15;5.53;;;4.60;;
9541;SDS011;4809;48.224;8.572;2023-07-09T04:01:40;5.88;;;4.85;;
9541;SDS011;4809;48.224;8.572;2023-07-09T04:04:11;4.82;;;4.30;;
9541;SDS011;4809;48.224;8.572;2023-07-09T04:06:37;5.78;;;4.50;;
9541;SDS011;4809;48.224;8.572;2023-07-09T04:09:03;6.40;;;5.00;;
9541;SDS011;4809;48.224;8.572;2023-07-09T04:11:29;6.25;;;4.65;;
9541;SDS011;4809;48.224;8.572;2023-07-09T04:13:54;6.03;;;4.68;;
9541;SDS011;4809;48.224;8.572;2023-07-09T04:16:20;5.63;;;4.80;;
9541;SDS011;4809;48.224;8.572;2023-07-09T04:18:46;6.43;;;4.28;;
9541;SDS011;4809;48.224;8.572;2023-07-09T04:21:11;5.25;;;4.40;;
9541;SDS011;4809;48.224;8.572;2023-07-09T04:23:37;5.22;;;4.55;;
9541;SDS011;4809;48.224;8.572;2023-07-09T04:26:03;6.30;;;4.75;;
9541;SDS011;4809;48.224;8.572;2023-07-09T04:28:29;7.28;;;5.30;;
9541;SDS011;4809;48.224;8.572;2023-07-09T04:30:56;6.15;;;4.88;;
9541;SDS011;4809;48.224;8.572;2023-07-09T04:33:21;6.65;;;4.85;;
9541;SDS011;4809;48.224;8.572;2023-07-09T04:35:47;5.65;;;4.47;;
9541;SDS011;4809;48.224;8.572;2023-07-09T04:38:13;5.32;;;4.60;;
9541;SDS011;4809;48.224;8.572;2023-07-09T04:40:40;6.72;;;4.90;;
9541;SDS011;4809;48.224;8.572;2023-07-09T04:43:06;6.75;;;4.70;;
9541;SDS011;4809;48.224;8.572;2023-07-09T04:45:31;6.28;;;4.70;;
9541;SDS011;4809;48.224;8.572;2023-07-09T04:47:57;6.32;;;4.82;;
9541;SDS011;4809;48.224;8.572;2023-07-09T04:50:22;6.10;;;4.65;;
9541;SDS011;4809;48.224;8.572;2023-07-09T04:52:49;6.03;;;4.28;;
9541;SDS011;4809;48.224;8.572;2023-07-09T04:55:14;6.53;;;5.20;;
9541;SDS011;4809;48.224;8.572;2023-07-09T04:57:40;9.00;;;6.40;;
9541;SDS011;4809;48.224;8.572;2023-07-09T05:00:06;6.65;;;5.25;;
9541;SDS011;4809;48.224;8.572;2023-07-09T05:02:32;5.68;;;4.70;;
9541;SDS011;4809;48.224;8.572;2023-07-09T05:04:58;5.30;;;4.55;;
9541;SDS011;4809;48.224;8.572;2023-07-09T05:07:24;6.32;;;4.97;;
9541;SDS011;4809;48.224;8.572;2023-07-09T05:09:50;7.07;;;4.85;;
9541;SDS011;4809;48.224;8.572;2023-07-09T05:12:16;8.85;;;5.30;;
9541;SDS011;4809;48.224;8.572;2023-07-09T05:14:41;7.97;;;5.15;;
9541;SDS011;4809;48.224;8.572;2023-07-09T05:17:07;8.23;;;5.25;;
9541;SDS011;4809;48.224;8.572;2023-07-09T05:19:33;7.75;;;5.60;;
9541;SDS011;4809;48.224;8.572;2023-07-09T05:21:59;7.60;;;5.30;;
9541;SDS011;4809;48.224;8.572;2023-07-09T05:24:24;7.90;;;5.13;;
9541;SDS011;4809;48.224;8.572;2023-07-09T05:26:50;7.60;;;5.00;;
9541;SDS011;4809;48.224;8.572;2023-07-09T05:29:16;7.80;;;5.35;;
9541;SDS011;4809;48.224;8.572;2023-07-09T05:31:41;8.82;;;5.50;;
9541;SDS011;4809;48.224;8.572;2023-07-09T05:34:07;7.50;;;5.75;;
9541;SDS011;4809;48.224;8.572;2023-07-09T05:36:33;7.13;;;5.43;;
9541;SDS011;4809;48.224;8.572;2023-07-09T05:38:59;7.05;;;5.00;;
9541;SDS011;4809;48.224;8.572;2023-07-09T05:41:25;6.63;;;5.18;;
9541;SDS011;4809;48.224;8.572;2023-07-09T05:43:51;6.00;;;4.97;;
9541;SDS011;4809;48.224;8.572;2023-07-09T05:46:17;7.40;;;5.25;;
9541;SDS011;4809;48.224;8.572;2023-07-09T05:48:43;5.65;;;4.70;;
9541;SDS011;4809;48.224;8.572;2023-07-09T05:51:09;6.60;;;5.15;;
9541;SDS011;4809;48.224;8.572;2023-07-09T05:53:35;6.22;;;4.22;;
9541;SDS011;4809;48.224;8.572;2023-07-09T05:56:00;5.90;;;4.22;;
9541;SDS011;4809;48.224;8.572;2023-07-09T05:58:26;6.93;;;4.65;;
9541;SDS011;4809;48.224;8.572;2023-07-09T06:00:53;6.10;;;4.47;;
9541;SDS011;4809;48.224;8.572;2023-07-09T06:03:22;5.07;;;4.28;;
9541;SDS011;4809;48.224;8.572;2023-07-09T06:05:48;5.38;;;4.38;;
9541;SDS011;4809;48.224;8.572;2023-07-09T06:08:15;6.65;;;4.80;;
9541;SDS011;4809;48.224;8.572;2023-07-09T06:10:50;6.28;;;4.47;;
9541;SDS011;4809;48.224;8.572;2023-07-09T06:13:16;7.07;;;5.35;;
9541;SDS011;4809;48.224;8.572;2023-07-09T06:15:43;6.75;;;5.15;;
9541;SDS011;4809;48.224;8.572;2023-07-09T06:18:09;7.57;;;5.10;;
9541;SDS011;4809;48.224;8.572;2023-07-09T06:20:34;6.82;;;4.85;;
9541;SDS011;4809;48.224;8.572;2023-07-09T06:23:00;6.65;;;4.85;;
9541;SDS011;4809;48.224;8.572;2023-07-09T06:25:25;5.95;;;5.18;;
9541;SDS011;4809;48.224;8.572;2023-07-09T06:27:51;6.57;;;4.97;;
9541;SDS011;4809;48.224;8.572;2023-07-09T06:30:17;7.30;;;5.43;;
9541;SDS011;4809;48.224;8.572;2023-07-09T06:32:44;5.90;;;4.93;;
9541;SDS011;4809;48.224;8.572;2023-07-09T06:35:10;6.35;;;4.90;;
9541;SDS011;4809;48.224;8.572;2023-07-09T06:37:36;5.78;;;5.00;;
9541;SDS011;4809;48.224;8.572;2023-07-09T06:40:02;7.15;;;4.82;;
9541;SDS011;4809;48.224;8.572;2023-07-09T06:42:28;6.05;;;5.30;;
9541;SDS011;4809;48.224;8.572;2023-07-09T06:44:53;7.47;;;5.43;;
9541;SDS011;4809;48.224;8.572;2023-07-09T06:47:19;8.13;;;5.47;;
9541;SDS011;4809;48.224;8.572;2023-07-09T06:49:45;5.85;;;5.30;;
9541;SDS011;4809;48.224;8.572;2023-07-09T06:52:10;8.10;;;5.40;;
9541;SDS011;4809;48.224;8.572;2023-07-09T06:54:36;7.40;;;5.28;;
9541;SDS011;4809;48.224;8.572;2023-07-09T06:57:02;6.60;;;5.15;;
9541;SDS011;4809;48.224;8.572;2023-07-09T06:59:28;6.93;;;5.35;;
9541;SDS011;4809;48.224;8.572;2023-07-09T07:01:53;6.47;;;5.30;;
9541;SDS011;4809;48.224;8.572;2023-07-09T07:04:19;7.40;;;5.20;;
9541;SDS011;4809;48.224;8.572;2023-07-09T07:06:44;7.97;;;5.18;;
9541;SDS011;4809;48.224;8.572;2023-07-09T07:09:10;7.05;;;5.00;;
9541;SDS011;4809;48.224;8.572;2023-07-09T07:11:36;8.40;;;5.20;;
9541;SDS011;4809;48.224;8.572;2023-07-09T07:14:01;9.10;;;5.20;;
9541;SDS011;4809;48.224;8.572;2023-07-09T07:16:27;7.25;;;4.97;;
9541;SDS011;4809;48.224;8.572;2023-07-09T07:18:52;8.45;;;5.03;;
9541;SDS011;4809;48.224;8.572;2023-07-09T07:21:18;7.45;;;5.13;;
9541;SDS011;4809;48.224;8.572;2023-07-09T07:23:43;8.48;;;4.78;;
9541;SDS011;4809;48.224;8.572;2023-07-09T07:26:09;5.68;;;4.70;;
9541;SDS011;4809;48.224;8.572;2023-07-09T07:28:35;5.70;;;4.60;;
9541;SDS011;4809;48.224;8.572;2023-07-09T07:31:02;6.47;;;4.80;;
9541;SDS011;4809;48.224;8.572;2023-07-09T07:33:29;5.78;;;4.65;;
9541;SDS011;4809;48.224;8.572;2023-07-09T07:35:55;5.95;;;4.22;;
9541;SDS011;4809;48.224;8.572;2023-07-09T07:38:21;5.70;;;4.70;;
9541;SDS011;4809;48.224;8.572;2023-07-09T07:40:47;5.85;;;4.60;;
9541;SDS011;4809;48.224;8.572;2023-07-09T07:43:13;6.10;;;4.32;;
9541;SDS011;4809;48.224;8.572;2023-07-09T07:45:42;4.45;;;3.97;;
9541;SDS011;4809;48.224;8.572;2023-07-09T07:48:08;5.85;;;4.18;;
9541;SDS011;4809;48.224;8.572;2023-07-09T07:50:34;6.82;;;4.30;;
9541;SDS011;4809;48.224;8.572;2023-07-09T07:53:00;5.05;;;4.03;;
9541;SDS011;4809;48.224;8.572;2023-07-09T07:55:26;5.10;;;4.20;;
9541;SDS011;4809;48.224;8.572;2023-07-09T07:57:52;6.68;;;4.40;;
9541;SDS011;4809;48.224;8.572;2023-07-09T08:00:18;6.30;;;4.40;;
9541;SDS011;4809;48.224;8.572;2023-07-09T08:02:44;5.82;;;4.43;;
9541;SDS011;4809;48.224;8.572;2023-07-09T08:05:10;11.05;;;9.88;;
9541;SDS011;4809;48.224;8.572;2023-07-09T08:07:36;13.50;;;12.25;;
9541;SDS011;4809;48.224;8.572;2023-07-09T08:10:01;7.35;;;4.65;;
9541;SDS011;4809;48.224;8.572;2023-07-09T08:12:27;5.10;;;4.10;;
9541;SDS011;4809;48.224;8.572;2023-07-09T08:14:53;6.10;;;4.28;;
9541;SDS011;4809;48.224;8.572;2023-07-09T08:17:18;4.90;;;4.07;;
9541;SDS011;4809;48.224;8.572;2023-07-09T08:19:52;8.30;;;4.00;;
9541;SDS011;4809;48.224;8.572;2023-07-09T08:22:19;5.63;;;4.20;;
9541;SDS011;4809;48.224;8.572;2023-07-09T08:24:46;6.60;;;4.35;;
9541;SDS011;4809;48.224;8.572;2023-07-09T08:27:13;6.10;;;4.55;;
9541;SDS011;4809;48.224;8.572;2023-07-09T08:29:39;7.07;;;4.30;;
9541;SDS011;4809;48.224;8.572;2023-07-09T08:32:06;4.97;;;3.83;;
9541;SDS011;4809;48.224;8.572;2023-07-09T08:34:33;5.10;;;4.10;;
9541;SDS011;4809;48.224;8.572;2023-07-09T08:36:59;4.93;;;3.83;;
9541;SDS011;4809;48.224;8.572;2023-07-09T08:39:24;5.60;;;4.38;;
9541;SDS011;4809;48.224;8.572;2023-07-09T08:41:54;5.95;;;3.92;;
9541;SDS011;4809;48.224;8.572;2023-07-09T08:47:11;5.30;;;4.43;;
9541;SDS011;4809;48.224;8.572;2023-07-09T08:50:03;5.88;;;4.20;;
9541;SDS011;4809;48.224;8.572;2023-07-09T08:52:39;4.95;;;3.92;;
9541;SDS011;4809;48.224;8.572;2023-07-09T08:55:17;4.82;;;4.03;;
9541;SDS011;4809;48.224;8.572;2023-07-09T08:57:46;4.78;;;4.18;;
9541;SDS011;4809;48.224;8.572;2023-07-09T09:00:24;5.05;;;4.07;;
9541;SDS011;4809;48.224;8.572;2023-07-09T09:02:59;4.93;;;3.92;;
9541;SDS011;4809;48.224;8.572;2023-07-09T09:05:25;5.80;;;4.30;;
9541;SDS011;4809;48.224;8.572;2023-07-09T09:08:09;5.13;;;4.00;;
9541;SDS011;4809;48.224;8.572;2023-07-09T09:11:12;4.90;;;4.10;;
9541;SDS011;4809;48.224;8.572;2023-07-09T09:13:46;5.50;;;4.10;;
9541;SDS011;4809;48.224;8.572;2023-07-09T09:16:35;4.90;;;3.70;;
9541;SDS011;4809;48.224;8.572;2023-07-09T09:19:01;4.93;;;3.80;;
9541;SDS011;4809;48.224;8.572;2023-07-09T09:21:35;4.72;;;3.97;;
9541;SDS011;4809;48.224;8.572;2023-07-09T09:24:10;4.72;;;3.90;;
9541;SDS011;4809;48.224;8.572;2023-07-09T09:26:41;4.45;;;4.05;;
9541;SDS011;4809;48.224;8.572;2023-07-09T09:29:12;5.47;;;3.88;;
9541;SDS011;4809;48.224;8.572;2023-07-09T09:31:40;5.45;;;3.80;;
9541;SDS011;4809;48.224;8.572;2023-07-09T09:34:16;4.75;;;3.55;;
9541;SDS011;4809;48.224;8.572;2023-07-09T09:36:46;4.03;;;3.53;;
9541;SDS011;4809;48.224;8.572;2023-07-09T09:39:12;4.15;;;3.63;;
9541;SDS011;4809;48.224;8.572;2023-07-09T09:41:38;4.32;;;3.35;;
9541;SDS011;4809;48.224;8.572;2023-07-09T09:44:05;4.72;;;3.70;;
9541;SDS011;4809;48.224;8.572;2023-07-09T09:46:31;5.32;;;3.67;;
9541;SDS011;4809;48.224;8.572;2023-07-09T09:49:01;5.28;;;3.60;;
9541;SDS011;4809;48.224;8.572;2023-07-09T09:51:28;5.13;;;3.85;;
9541;SDS011;4809;48.224;8.572;2023-07-09T09:53:58;6.95;;;3.72;;
9541;SDS011;4809;48.224;8.572;2023-07-09T09:56:35;4.28;;;3.30;;
9541;SDS011;4809;48.224;8.572;2023-07-09T09:59:02;4.25;;;3.40;;
9541;SDS011;4809;48.224;8.572;2023-07-09T10:01:30;4.80;;;3.33;;
9541;SDS011;4809;48.224;8.572;2023-07-09T10:03:59;6.35;;;3.78;;
9541;SDS011;4809;48.224;8.572;2023-07-09T10:06:34;4.07;;;3.45;;
9541;SDS011;4809;48.224;8.572;2023-07-09T10:09:49;4.57;;;4.00;;
9541;SDS011;4809;48.224;8.572;2023-07-09T10:17:27;5.13;;;4.10;;
9541;SDS011;4809;48.224;8.572;2023-07-09T10:25:16;5.32;;;3.90;;
9541;SDS011;4809;48.224;8.572;2023-07-09T10:39:22;4.78;;;4.00;;
9541;SDS011;4809;48.224;8.572;2023-07-09T10:41:52;4.65;;;3.88;;
9541;SDS011;4809;48.224;8.572;2023-07-09T10:44:24;5.25;;;3.97;;
9541;SDS011;4809;48.224;8.572;2023-07-09T10:47:06;4.60;;;3.50;;
9541;SDS011;4809;48.224;8.572;2023-07-09T10:49:41;4.43;;;3.63;;
9541;SDS011;4809;48.224;8.572;2023-07-09T10:52:13;5.20;;;3.88;;
9541;SDS011;4809;48.224;8.572;2023-07-09T10:54:59;5.50;;;3.67;;
9541;SDS011;4809;48.224;8.572;2023-07-09T10:57:44;5.80;;;3.78;;
9541;SDS011;4809;48.224;8.572;2023-07-09T11:00:33;4.85;;;3.60;;
9541;SDS011;4809;48.224;8.572;2023-07-09T11:03:05;5.10;;;3.72;;
9541;SDS011;4809;48.224;8.572;2023-07-09T11:05:47;4.80;;;4.00;;
9541;SDS011;4809;48.224;8.572;2023-07-09T11:08:15;5.22;;;3.88;;
9541;SDS011;4809;48.224;8.572;2023-07-09T11:10:52;4.88;;;3.80;;
9541;SDS011;4809;48.224;8.572;2023-07-09T11:13:26;4.40;;;4.00;;
9541;SDS011;4809;48.224;8.572;2023-07-09T11:16:29;4.68;;;3.58;;
9541;SDS011;4809;48.224;8.572;2023-07-09T11:19:01;5.47;;;3.95;;
9541;SDS011;4809;48.224;8.572;2023-07-09T11:21:28;6.32;;;3.97;;
9541;SDS011;4809;48.224;8.572;2023-07-09T11:23:55;5.00;;;3.88;;
9541;SDS011;4809;48.224;8.572;2023-07-09T11:29:43;5.25;;;3.67;;
9541;SDS011;4809;48.224;8.572;2023-07-09T11:31:43;5.30;;;3.50;;
9541;SDS011;4809;48.224;8.572;2023-07-09T11:36:50;3.70;;;3.30;;
9541;SDS011;4809;48.224;8.572;2023-07-09T11:39:20;5.63;;;3.67;;
9541;SDS011;4809;48.224;8.572;2023-07-09T11:41:47;4.60;;;3.85;;
9541;SDS011;4809;48.224;8.572;2023-07-09T11:44:21;4.45;;;3.92;;
9541;SDS011;4809;48.224;8.572;2023-07-09T11:49:59;4.20;;;3.60;;
9541;SDS011;4809;48.224;8.572;2023-07-09T11:52:30;5.38;;;3.80;;
9541;SDS011;4809;48.224;8.572;2023-07-09T11:55:42;4.90;;;3.80;;
9541;SDS011;4809;48.224;8.572;2023-07-09T11:57:59;4.57;;;3.63;;
9541;SDS011;4809;48.224;8.572;2023-07-09T12:00:30;5.25;;;3.85;;
9541;SDS011;4809;48.224;8.572;2023-07-09T12:03:03;5.20;;;3.90;;
9541;SDS011;4809;48.224;8.572;2023-07-09T12:05:31;4.82;;;3.67;;
9541;SDS011;4809;48.224;8.572;2023-07-09T12:07:57;4.32;;;3.92;;
9541;SDS011;4809;48.224;8.572;2023-07-09T12:10:25;4.47;;;3.80;;
9541;SDS011;4809;48.224;8.572;2023-07-09T12:12:56;6.07;;;4.20;;
9541;SDS011;4809;48.224;8.572;2023-07-09T12:15:25;4.88;;;3.60;;
9541;SDS011;4809;48.224;8.572;2023-07-09T12:17:54;5.63;;;4.03;;
9541;SDS011;4809;48.224;8.572;2023-07-09T12:20:20;4.32;;;3.90;;
9541;SDS011;4809;48.224;8.572;2023-07-09T12:22:46;5.00;;;3.78;;
9541;SDS011;4809;48.224;8.572;2023-07-09T12:25:18;4.55;;;3.80;;
9541;SDS011;4809;48.224;8.572;2023-07-09T12:27:47;5.68;;;4.00;;
9541;SDS011;4809;48.224;8.572;2023-07-09T12:30:13;7.97;;;4.10;;
9541;SDS011;4809;48.224;8.572;2023-07-09T12:32:46;4.38;;;3.85;;
9541;SDS011;4809;48.224;8.572;2023-07-09T12:35:19;4.40;;;3.65;;
9541;SDS011;4809;48.224;8.572;2023-07-09T12:37:47;5.57;;;3.95;;
9541;SDS011;4809;48.224;8.572;2023-07-09T12:40:16;4.65;;;3.60;;
9541;SDS011;4809;48.224;8.572;2023-07-09T12:42:45;6.90;;;3.83;;
9541;SDS011;4809;48.224;8.572;2023-07-09T12:45:16;5.18;;;3.70;;
9541;SDS011;4809;48.224;8.572;2023-07-09T12:47:44;5.57;;;3.78;;
9541;SDS011;4809;48.224;8.572;2023-07-09T12:52:59;5.88;;;3.50;;
9541;SDS011;4809;48.224;8.572;2023-07-09T12:55:38;4.90;;;4.07;;
9541;SDS011;4809;48.224;8.572;2023-07-09T12:58:08;6.63;;;3.80;;
9541;SDS011;4809;48.224;8.572;2023-07-09T13:00:37;5.88;;;3.78;;
9541;SDS011;4809;48.224;8.572;2023-07-09T13:03:02;7.25;;;3.70;;
9541;SDS011;4809;48.224;8.572;2023-07-09T13:05:35;5.07;;;3.50;;
9541;SDS011;4809;48.224;8.572;2023-07-09T13:08:01;4.80;;;3.60;;
9541;SDS011;4809;48.224;8.572;2023-07-09T13:10:29;6.43;;;4.13;;
9541;SDS011;4809;48.224;8.572;2023-07-09T13:13:05;7.40;;;4.00;;
9541;SDS011;4809;48.224;8.572;2023-07-09T13:18:00;4.88;;;3.47;;
9541;SDS011;4809;48.224;8.572;2023-07-09T13:20:29;5.53;;;3.55;;
9541;SDS011;4809;48.224;8.572;2023-07-09T13:22:56;6.53;;;3.78;;
9541;SDS011;4809;48.224;8.572;2023-07-09T13:25:23;6.85;;;3.95;;
9541;SDS011;4809;48.224;8.572;2023-07-09T13:27:49;4.72;;;4.00;;
9541;SDS011;4809;48.224;8.572;2023-07-09T13:30:15;4.03;;;3.60;;
9541;SDS011;4809;48.224;8.572;2023-07-09T13:32:41;6.55;;;3.90;;
9541;SDS011;4809;48.224;8.572;2023-07-09T13:35:17;4.85;;;3.63;;
9541;SDS011;4809;48.224;8.572;2023-07-09T13:37:44;4.50;;;3.83;;
9541;SDS011;4809;48.224;8.572;2023-07-09T13:40:11;5.30;;;3.95;;
9541;SDS011;4809;48.224;8.572;2023-07-09T13:42:39;6.80;;;3.92;;
9541;SDS011;4809;48.224;8.572;2023-07-09T13:45:09;5.80;;;3.63;;
9541;SDS011;4809;48.224;8.572;2023-07-09T13:47:42;5.55;;;3.85;;
9541;SDS011;4809;48.224;8.572;2023-07-09T13:50:07;6.88;;;3.72;;
9541;SDS011;4809;48.224;8.572;2023-07-09T13:52:33;4.10;;;3.70;;
9541;SDS011;4809;48.224;8.572;2023-07-09T13:54:59;7.05;;;3.92;;
9541;SDS011;4809;48.224;8.572;2023-07-09T13:57:25;5.90;;;4.10;;
9541;SDS011;4809;48.224;8.572;2023-07-09T13:59:50;6.82;;;3.97;;
9541;SDS011;4809;48.224;8.572;2023-07-09T14:04:49;6.15;;;4.10;;
9541;SDS011;4809;48.224;8.572;2023-07-09T14:07:26;4.53;;;3.78;;
9541;SDS011;4809;48.224;8.572;2023-07-09T14:09:54;5.22;;;3.83;;
9541;SDS011;4809;48.224;8.572;2023-07-09T14:12:20;5.25;;;3.85;;
9541;SDS011;4809;48.224;8.572;2023-07-09T14:14:46;5.70;;;4.10;;
9541;SDS011;4809;48.224;8.572;2023-07-09T14:17:14;6.43;;;3.75;;
9541;SDS011;4809;48.224;8.572;2023-07-09T14:19:39;4.88;;;3.53;;
9541;SDS011;4809;48.224;8.572;2023-07-09T14:22:19;5.15;;;3.85;;
9541;SDS011;4809;48.224;8.572;2023-07-09T14:24:51;7.60;;;4.10;;
9541;SDS011;4809;48.224;8.572;2023-07-09T14:27:17;5.65;;;3.78;;
9541;SDS011;4809;48.224;8.572;2023-07-09T14:29:44;4.03;;;3.42;;
9541;SDS011;4809;48.224;8.572;2023-07-09T14:35:09;6.55;;;3.78;;
9541;SDS011;4809;48.224;8.572;2023-07-09T14:37:38;4.63;;;3.53;;
9541;SDS011;4809;48.224;8.572;2023-07-09T14:40:04;4.85;;;3.50;;
9541;SDS011;4809;48.224;8.572;2023-07-09T14:42:30;5.07;;;3.50;;
9541;SDS011;4809;48.224;8.572;2023-07-09T14:44:56;5.50;;;3.92;;
9541;SDS011;4809;48.224;8.572;2023-07-09T14:47:22;5.70;;;3.70;;
9541;SDS011;4809;48.224;8.572;2023-07-09T14:49:48;6.00;;;3.72;;
9541;SDS011;4809;48.224;8.572;2023-07-09T14:52:16;4.85;;;3.70;;
9541;SDS011;4809;48.224;8.572;2023-07-09T14:54:45;4.65;;;3.53;;
9541;SDS011;4809;48.224;8.572;2023-07-09T14:57:17;5.88;;;4.07;;
9541;SDS011;4809;48.224;8.572;2023-07-09T14:59:46;6.20;;;3.83;;
9541;SDS011;4809;48.224;8.572;2023-07-09T15:05:00;5.40;;;3.75;;
9541;SDS011;4809;48.224;8.572;2023-07-09T15:07:27;5.53;;;3.58;;
9541;SDS011;4809;48.224;8.572;2023-07-09T15:09:59;5.40;;;3.75;;
9541;SDS011;4809;48.224;8.572;2023-07-09T15:12:32;5.03;;;3.85;;
9541;SDS011;4809;48.224;8.572;2023-07-09T15:15:21;5.95;;;3.78;;
9541;SDS011;4809;48.224;8.572;2023-07-09T15:17:45;5.88;;;3.63;;
9541;SDS011;4809;48.224;8.572;2023-07-09T15:20:15;5.13;;;4.05;;
9541;SDS011;4809;48.224;8.572;2023-07-09T15:22:43;5.90;;;3.80;;
9541;SDS011;4809;48.224;8.572;2023-07-09T15:25:15;4.50;;;3.53;;
9541;SDS011;4809;48.224;8.572;2023-07-09T15:27:42;5.68;;;3.70;;
9541;SDS011;4809;48.224;8.572;2023-07-09T15:30:16;4.40;;;3.58;;
9541;SDS011;4809;48.224;8.572;2023-07-09T15:32:46;6.40;;;3.80;;
9541;SDS011;4809;48.224;8.572;2023-07-09T15:35:14;4.38;;;3.60;;
9541;SDS011;4809;48.224;8.572;2023-07-09T15:37:41;6.45;;;3.80;;
9541;SDS011;4809;48.224;8.572;2023-07-09T15:40:15;5.28;;;3.88;;
9541;SDS011;4809;48.224;8.572;2023-07-09T15:42:41;6.38;;;3.90;;
9541;SDS011;4809;48.224;8.572;2023-07-09T15:45:07;5.05;;;3.67;;
9541;SDS011;4809;48.224;8.572;2023-07-09T15:47:37;6.03;;;3.88;;
9541;SDS011;4809;48.224;8.572;2023-07-09T15:50:11;4.97;;;3.70;;
9541;SDS011;4809;48.224;8.572;2023-07-09T15:52:41;5.72;;;3.85;;
9541;SDS011;4809;48.224;8.572;2023-07-09T15:55:12;5.18;;;3.78;;
9541;SDS011;4809;48.224;8.572;2023-07-09T15:57:44;5.80;;;3.88;;
9541;SDS011;4809;48.224;8.572;2023-07-09T16:02:48;4.65;;;3.70;;
9541;SDS011;4809;48.224;8.572;2023-07-09T16:05:17;6.55;;;4.00;;
9541;SDS011;4809;48.224;8.572;2023-07-09T16:07:43;4.97;;;3.67;;
9541;SDS011;4809;48.224;8.572;2023-07-09T16:10:09;5.22;;;3.88;;
9541;SDS011;4809;48.224;8.572;2023-07-09T16:12:38;6.28;;;3.80;;
9541;SDS011;4809;48.224;8.572;2023-07-09T16:15:13;4.28;;;3.58;;
9541;SDS011;4809;48.224;8.572;2023-07-09T16:17:43;4.95;;;3.75;;
9541;SDS011;4809;48.224;8.572;2023-07-09T16:20:11;5.20;;;3.90;;
9541;SDS011;4809;48.224;8.572;2023-07-09T16:22:40;5.50;;;3.90;;